Urucara, Brazil
Current Conditions -  °F | °C
As of 1:00 PM on Saturday 25 Oct 2014 (Local Time) from SBMN Reporting Station
Scattered Clouds Scattered Clouds  
Wind Chill: 88°   Ceiling: Unl
Heat Index: 96°   Visibility: 6mi
Dew Point: 73°   Wind: 6mph
Humidity: 62%   Direction: 190°S
Pressure: 29.8"   Gusts: NA
Location:  2.52°S, 57.75°W
Report Text: SBMN 251700Z 19005KT 9999 SCT020 FEW025TCU 31/23 Q1009
Loading
Personal Weather Stations






























Interactive Weather Map
Tropical Storm Tracking
New forecast layout! Learn more

10-Day Weather Forecast

Advertisements
Track Severe Weather on mobile